sensor_id;sensor_type;location;lat;lon;timestamp;P1;durP1;ratioP1;P2;durP2;ratioP2
31716;SDS011;18301;51.076;17.046;2022-12-07T00:04:34;8.20;;;5.10;;
31716;SDS011;18301;51.076;17.046;2022-12-07T00:09:35;6.50;;;4.20;;
31716;SDS011;18301;51.076;17.046;2022-12-07T00:14:37;5.97;;;3.88;;
31716;SDS011;18301;51.076;17.046;2022-12-07T00:19:38;5.15;;;3.55;;
31716;SDS011;18301;51.076;17.046;2022-12-07T00:24:40;5.22;;;3.38;;
31716;SDS011;18301;51.076;17.046;2022-12-07T00:29:42;4.70;;;3.28;;
31716;SDS011;18301;51.076;17.046;2022-12-07T00:34:43;3.50;;;2.70;;
31716;SDS011;18301;51.076;17.046;2022-12-07T00:39:45;3.17;;;2.45;;
31716;SDS011;18301;51.076;17.046;2022-12-07T00:44:47;4.00;;;2.83;;
31716;SDS011;18301;51.076;17.046;2022-12-07T00:49:48;5.22;;;2.80;;
31716;SDS011;18301;51.076;17.046;2022-12-07T00:54:50;3.20;;;2.72;;
31716;SDS011;18301;51.076;17.046;2022-12-07T00:59:52;4.45;;;2.35;;
31716;SDS011;18301;51.076;17.046;2022-12-07T01:04:56;3.60;;;2.58;;
31716;SDS011;18301;51.076;17.046;2022-12-07T01:09:58;3.63;;;2.15;;
31716;SDS011;18301;51.076;17.046;2022-12-07T01:15:00;4.90;;;2.40;;
31716;SDS011;18301;51.076;17.046;2022-12-07T01:20:02;2.42;;;2.03;;
31716;SDS011;18301;51.076;17.046;2022-12-07T01:25:05;2.63;;;1.98;;
31716;SDS011;18301;51.076;17.046;2022-12-07T01:30:08;2.80;;;1.90;;
31716;SDS011;18301;51.076;17.046;2022-12-07T01:35:11;3.80;;;2.22;;
31716;SDS011;18301;51.076;17.046;2022-12-07T01:40:12;3.85;;;1.95;;
31716;SDS011;18301;51.076;17.046;2022-12-07T01:50:19;3.25;;;2.17;;
31716;SDS011;18301;51.076;17.046;2022-12-07T01:55:22;2.70;;;1.98;;
31716;SDS011;18301;51.076;17.046;2022-12-07T02:00:24;2.70;;;1.65;;
31716;SDS011;18301;51.076;17.046;2022-12-07T02:05:26;1.80;;;1.40;;
31716;SDS011;18301;51.076;17.046;2022-12-07T02:10:29;2.78;;;1.50;;
31716;SDS011;18301;51.076;17.046;2022-12-07T02:15:34;1.58;;;1.27;;
31716;SDS011;18301;51.076;17.046;2022-12-07T02:21:06;2.45;;;1.17;;
31716;SDS011;18301;51.076;17.046;2022-12-07T02:31:25;2.72;;;1.30;;
31716;SDS011;18301;51.076;17.046;2022-12-07T02:36:30;1.20;;;1.10;;
31716;SDS011;18301;51.076;17.046;2022-12-07T02:41:40;1.20;;;1.10;;
31716;SDS011;18301;51.076;17.046;2022-12-07T02:46:53;1.33;;;1.00;;
31716;SDS011;18301;51.076;17.046;2022-12-07T02:51:56;1.20;;;1.10;;
31716;SDS011;18301;51.076;17.046;2022-12-07T02:57:12;1.20;;;1.10;;
31716;SDS011;18301;51.076;17.046;2022-12-07T03:02:28;1.80;;;1.20;;
31716;SDS011;18301;51.076;17.046;2022-12-07T03:07:39;1.70;;;0.95;;
31716;SDS011;18301;51.076;17.046;2022-12-07T03:12:54;2.80;;;1.13;;
31716;SDS011;18301;51.076;17.046;2022-12-07T03:18:18;1.48;;;1.05;;
31716;SDS011;18301;51.076;17.046;2022-12-07T03:23:23;1.55;;;1.27;;
31716;SDS011;18301;51.076;17.046;2022-12-07T03:28:28;4.53;;;1.17;;
31716;SDS011;18301;51.076;17.046;2022-12-07T03:44:22;1.52;;;1.30;;
31716;SDS011;18301;51.076;17.046;2022-12-07T03:49:26;3.83;;;1.38;;
31716;SDS011;18301;51.076;17.046;2022-12-07T03:54:36;1.60;;;1.50;;
31716;SDS011;18301;51.076;17.046;2022-12-07T03:59:43;3.45;;;1.40;;
31716;SDS011;18301;51.076;17.046;2022-12-07T04:04:45;1.33;;;1.23;;
31716;SDS011;18301;51.076;17.046;2022-12-07T04:09:46;1.70;;;1.60;;
31716;SDS011;18301;51.076;17.046;2022-12-07T04:14:49;1.52;;;1.42;;
31716;SDS011;18301;51.076;17.046;2022-12-07T04:19:50;3.42;;;2.35;;
31716;SDS011;18301;51.076;17.046;2022-12-07T04:24:52;3.28;;;1.60;;
31716;SDS011;18301;51.076;17.046;2022-12-07T04:29:54;1.65;;;1.30;;
31716;SDS011;18301;51.076;17.046;2022-12-07T04:34:56;1.40;;;1.30;;
31716;SDS011;18301;51.076;17.046;2022-12-07T04:39:58;1.40;;;1.23;;
31716;SDS011;18301;51.076;17.046;2022-12-07T04:45:00;1.27;;;1.17;;
31716;SDS011;18301;51.076;17.046;2022-12-07T04:50:02;1.50;;;1.40;;
31716;SDS011;18301;51.076;17.046;2022-12-07T04:55:04;2.28;;;1.55;;
31716;SDS011;18301;51.076;17.046;2022-12-07T05:00:06;1.73;;;1.60;;
31716;SDS011;18301;51.076;17.046;2022-12-07T05:05:08;2.30;;;1.67;;
31716;SDS011;18301;51.076;17.046;2022-12-07T05:10:10;2.20;;;2.00;;
31716;SDS011;18301;51.076;17.046;2022-12-07T05:15:12;3.17;;;2.30;;
31716;SDS011;18301;51.076;17.046;2022-12-07T05:20:14;2.80;;;2.10;;
31716;SDS011;18301;51.076;17.046;2022-12-07T05:25:16;2.58;;;2.13;;
31716;SDS011;18301;51.076;17.046;2022-12-07T05:30:17;2.30;;;2.10;;
31716;SDS011;18301;51.076;17.046;2022-12-07T05:35:19;3.53;;;2.40;;
31716;SDS011;18301;51.076;17.046;2022-12-07T05:40:21;3.47;;;2.42;;
31716;SDS011;18301;51.076;17.046;2022-12-07T05:45:23;6.68;;;3.30;;
31716;SDS011;18301;51.076;17.046;2022-12-07T05:50:24;6.60;;;3.78;;
31716;SDS011;18301;51.076;17.046;2022-12-07T05:55:26;7.20;;;4.50;;
31716;SDS011;18301;51.076;17.046;2022-12-07T06:00:28;9.38;;;5.38;;
31716;SDS011;18301;51.076;17.046;2022-12-07T06:05:29;9.63;;;5.53;;
31716;SDS011;18301;51.076;17.046;2022-12-07T06:10:31;10.23;;;6.45;;
31716;SDS011;18301;51.076;17.046;2022-12-07T06:15:32;11.88;;;6.90;;
31716;SDS011;18301;51.076;17.046;2022-12-07T06:20:34;11.43;;;6.60;;
31716;SDS011;18301;51.076;17.046;2022-12-07T06:25:35;12.13;;;7.45;;
31716;SDS011;18301;51.076;17.046;2022-12-07T06:30:37;10.82;;;7.03;;
31716;SDS011;18301;51.076;17.046;2022-12-07T06:35:39;11.68;;;7.60;;
31716;SDS011;18301;51.076;17.046;2022-12-07T06:40:40;14.23;;;7.82;;
31716;SDS011;18301;51.076;17.046;2022-12-07T06:45:42;14.13;;;7.65;;
31716;SDS011;18301;51.076;17.046;2022-12-07T06:50:44;12.77;;;7.40;;
31716;SDS011;18301;51.076;17.046;2022-12-07T06:55:54;15.77;;;8.48;;
31716;SDS011;18301;51.076;17.046;2022-12-07T07:00:56;13.07;;;7.63;;
31716;SDS011;18301;51.076;17.046;2022-12-07T07:05:57;13.23;;;7.75;;
31716;SDS011;18301;51.076;17.046;2022-12-07T07:10:59;13.55;;;7.70;;
31716;SDS011;18301;51.076;17.046;2022-12-07T07:16:01;13.10;;;7.30;;
31716;SDS011;18301;51.076;17.046;2022-12-07T07:21:03;14.93;;;8.15;;
31716;SDS011;18301;51.076;17.046;2022-12-07T07:26:05;15.07;;;8.18;;
31716;SDS011;18301;51.076;17.046;2022-12-07T07:31:06;14.23;;;7.70;;
31716;SDS011;18301;51.076;17.046;2022-12-07T07:36:08;12.63;;;7.78;;
31716;SDS011;18301;51.076;17.046;2022-12-07T07:41:10;13.85;;;7.82;;
31716;SDS011;18301;51.076;17.046;2022-12-07T07:46:11;13.70;;;7.65;;
31716;SDS011;18301;51.076;17.046;2022-12-07T07:51:13;13.57;;;8.05;;
31716;SDS011;18301;51.076;17.046;2022-12-07T07:56:15;15.65;;;8.30;;
31716;SDS011;18301;51.076;17.046;2022-12-07T08:01:16;14.55;;;8.02;;
31716;SDS011;18301;51.076;17.046;2022-12-07T08:06:20;15.07;;;7.78;;
31716;SDS011;18301;51.076;17.046;2022-12-07T08:11:22;12.70;;;7.25;;
31716;SDS011;18301;51.076;17.046;2022-12-07T08:16:24;14.00;;;7.47;;
31716;SDS011;18301;51.076;17.046;2022-12-07T08:21:25;15.10;;;7.90;;
31716;SDS011;18301;51.076;17.046;2022-12-07T08:26:27;13.02;;;7.72;;
31716;SDS011;18301;51.076;17.046;2022-12-07T08:31:29;18.20;;;7.93;;
31716;SDS011;18301;51.076;17.046;2022-12-07T08:36:31;14.05;;;8.00;;
31716;SDS011;18301;51.076;17.046;2022-12-07T08:41:33;16.08;;;8.93;;
31716;SDS011;18301;51.076;17.046;2022-12-07T08:46:42;14.30;;;7.82;;
31716;SDS011;18301;51.076;17.046;2022-12-07T08:51:50;15.73;;;8.68;;
31716;SDS011;18301;51.076;17.046;2022-12-07T08:56:52;12.93;;;8.23;;
31716;SDS011;18301;51.076;17.046;2022-12-07T09:02:00;14.40;;;8.05;;
31716;SDS011;18301;51.076;17.046;2022-12-07T09:07:01;14.23;;;7.68;;
31716;SDS011;18301;51.076;17.046;2022-12-07T09:12:04;16.08;;;8.38;;
31716;SDS011;18301;51.076;17.046;2022-12-07T09:17:09;14.82;;;8.23;;
31716;SDS011;18301;51.076;17.046;2022-12-07T09:22:13;11.00;;;6.40;;
31716;SDS011;18301;51.076;17.046;2022-12-07T09:27:15;9.75;;;5.90;;
31716;SDS011;18301;51.076;17.046;2022-12-07T09:32:18;10.90;;;5.95;;
31716;SDS011;18301;51.076;17.046;2022-12-07T09:37:20;11.60;;;6.10;;
31716;SDS011;18301;51.076;17.046;2022-12-07T09:42:29;8.45;;;5.38;;
31716;SDS011;18301;51.076;17.046;2022-12-07T09:47:35;8.25;;;5.18;;
31716;SDS011;18301;51.076;17.046;2022-12-07T09:52:37;9.40;;;5.72;;
31716;SDS011;18301;51.076;17.046;2022-12-07T09:57:39;11.38;;;6.32;;
31716;SDS011;18301;51.076;17.046;2022-12-07T10:02:42;7.85;;;4.88;;
31716;SDS011;18301;51.076;17.046;2022-12-07T10:08:01;10.43;;;5.55;;
31716;SDS011;18301;51.076;17.046;2022-12-07T10:13:03;13.25;;;6.20;;
31716;SDS011;18301;51.076;17.046;2022-12-07T10:23:30;14.45;;;7.28;;
31716;SDS011;18301;51.076;17.046;2022-12-07T10:28:35;15.23;;;7.97;;
31716;SDS011;18301;51.076;17.046;2022-12-07T10:33:55;14.60;;;7.60;;
31716;SDS011;18301;51.076;17.046;2022-12-07T10:39:09;11.90;;;6.88;;
31716;SDS011;18301;51.076;17.046;2022-12-07T10:44:20;15.75;;;6.57;;
31716;SDS011;18301;51.076;17.046;2022-12-07T10:54:48;9.07;;;4.90;;
31716;SDS011;18301;51.076;17.046;2022-12-07T11:00:21;4.32;;;2.92;;
31716;SDS011;18301;51.076;17.046;2022-12-07T11:05:28;5.30;;;2.73;;
31716;SDS011;18301;51.076;17.046;2022-12-07T11:32:26;3.83;;;2.78;;
31716;SDS011;18301;51.076;17.046;2022-12-07T11:37:55;5.22;;;3.03;;
31716;SDS011;18301;51.076;17.046;2022-12-07T11:48:33;4.20;;;2.63;;
31716;SDS011;18301;51.076;17.046;2022-12-07T11:53:41;3.78;;;2.40;;
31716;SDS011;18301;51.076;17.046;2022-12-07T11:59:00;3.97;;;2.90;;
31716;SDS011;18301;51.076;17.046;2022-12-07T12:09:21;4.20;;;2.65;;
31716;SDS011;18301;51.076;17.046;2022-12-07T12:25:31;4.40;;;2.83;;
31716;SDS011;18301;51.076;17.046;2022-12-07T12:30:40;4.88;;;3.33;;
31716;SDS011;18301;51.076;17.046;2022-12-07T12:35:42;5.30;;;3.15;;
31716;SDS011;18301;51.076;17.046;2022-12-07T12:40:44;4.05;;;2.95;;
31716;SDS011;18301;51.076;17.046;2022-12-07T12:45:51;6.60;;;3.35;;
31716;SDS011;18301;51.076;17.046;2022-12-07T12:51:37;6.07;;;3.28;;
31716;SDS011;18301;51.076;17.046;2022-12-07T13:28:37;7.78;;;3.17;;
31716;SDS011;18301;51.076;17.046;2022-12-07T13:33:46;8.05;;;4.32;;
31716;SDS011;18301;51.076;17.046;2022-12-07T13:38:49;10.68;;;4.15;;
31716;SDS011;18301;51.076;17.046;2022-12-07T13:49:31;7.47;;;4.72;;
31716;SDS011;18301;51.076;17.046;2022-12-07T13:54:42;7.40;;;4.35;;
31716;SDS011;18301;51.076;17.046;2022-12-07T13:59:45;10.10;;;4.57;;
31716;SDS011;18301;51.076;17.046;2022-12-07T14:04:48;8.63;;;4.22;;
31716;SDS011;18301;51.076;17.046;2022-12-07T14:15:02;7.40;;;4.32;;
31716;SDS011;18301;51.076;17.046;2022-12-07T14:20:27;7.03;;;4.40;;
31716;SDS011;18301;51.076;17.046;2022-12-07T14:30:51;8.23;;;4.82;;
31716;SDS011;18301;51.076;17.046;2022-12-07T14:35:53;8.65;;;4.70;;
31716;SDS011;18301;51.076;17.046;2022-12-07T14:40:59;7.90;;;4.30;;
31716;SDS011;18301;51.076;17.046;2022-12-07T14:46:21;6.10;;;3.45;;
31716;SDS011;18301;51.076;17.046;2022-12-07T14:51:22;7.28;;;4.30;;
31716;SDS011;18301;51.076;17.046;2022-12-07T14:56:45;8.20;;;4.78;;
31716;SDS011;18301;51.076;17.046;2022-12-07T15:01:50;7.35;;;4.57;;
31716;SDS011;18301;51.076;17.046;2022-12-07T15:06:58;6.82;;;4.18;;
31716;SDS011;18301;51.076;17.046;2022-12-07T15:17:03;6.05;;;4.07;;
31716;SDS011;18301;51.076;17.046;2022-12-07T15:27:14;8.10;;;4.22;;
31716;SDS011;18301;51.076;17.046;2022-12-07T15:32:16;8.30;;;4.05;;
31716;SDS011;18301;51.076;17.046;2022-12-07T15:37:17;7.85;;;4.68;;
31716;SDS011;18301;51.076;17.046;2022-12-07T15:42:19;7.18;;;4.82;;
31716;SDS011;18301;51.076;17.046;2022-12-07T15:47:21;7.78;;;4.70;;
31716;SDS011;18301;51.076;17.046;2022-12-07T15:52:22;13.00;;;6.18;;
31716;SDS011;18301;51.076;17.046;2022-12-07T15:57:24;12.38;;;6.32;;
31716;SDS011;18301;51.076;17.046;2022-12-07T16:02:26;11.88;;;5.93;;
31716;SDS011;18301;51.076;17.046;2022-12-07T16:07:27;11.60;;;5.75;;
31716;SDS011;18301;51.076;17.046;2022-12-07T16:12:29;9.00;;;5.60;;
31716;SDS011;18301;51.076;17.046;2022-12-07T16:17:30;12.48;;;5.43;;
31716;SDS011;18301;51.076;17.046;2022-12-07T16:22:32;9.82;;;5.43;;
31716;SDS011;18301;51.076;17.046;2022-12-07T16:27:34;9.60;;;5.10;;
31716;SDS011;18301;51.076;17.046;2022-12-07T16:32:36;9.50;;;5.03;;
31716;SDS011;18301;51.076;17.046;2022-12-07T16:37:38;9.18;;;3.88;;
31716;SDS011;18301;51.076;17.046;2022-12-07T16:42:40;8.98;;;3.85;;
31716;SDS011;18301;51.076;17.046;2022-12-07T16:47:41;4.72;;;3.15;;
31716;SDS011;18301;51.076;17.046;2022-12-07T16:52:43;7.80;;;3.40;;
31716;SDS011;18301;51.076;17.046;2022-12-07T16:57:44;7.93;;;4.13;;
31716;SDS011;18301;51.076;17.046;2022-12-07T17:02:46;7.68;;;4.10;;
31716;SDS011;18301;51.076;17.046;2022-12-07T17:07:48;6.60;;;3.83;;
31716;SDS011;18301;51.076;17.046;2022-12-07T17:12:49;7.88;;;4.20;;
31716;SDS011;18301;51.076;17.046;2022-12-07T17:23:00;6.68;;;3.83;;
31716;SDS011;18301;51.076;17.046;2022-12-07T17:28:01;8.68;;;4.30;;
31716;SDS011;18301;51.076;17.046;2022-12-07T17:33:03;6.90;;;3.58;;
31716;SDS011;18301;51.076;17.046;2022-12-07T17:38:04;10.02;;;3.88;;
31716;SDS011;18301;51.076;17.046;2022-12-07T17:43:06;11.90;;;4.35;;
31716;SDS011;18301;51.076;17.046;2022-12-07T17:48:07;7.25;;;3.75;;
31716;SDS011;18301;51.076;17.046;2022-12-07T17:53:12;7.20;;;3.97;;
31716;SDS011;18301;51.076;17.046;2022-12-07T17:58:14;9.27;;;3.75;;
31716;SDS011;18301;51.076;17.046;2022-12-07T18:03:15;10.52;;;3.90;;
31716;SDS011;18301;51.076;17.046;2022-12-07T18:08:17;8.50;;;3.47;;
31716;SDS011;18301;51.076;17.046;2022-12-07T18:13:19;7.78;;;4.03;;
31716;SDS011;18301;51.076;17.046;2022-12-07T18:18:39;7.63;;;3.58;;
31716;SDS011;18301;51.076;17.046;2022-12-07T18:23:42;6.95;;;3.40;;
31716;SDS011;18301;51.076;17.046;2022-12-07T18:28:45;8.15;;;4.35;;
31716;SDS011;18301;51.076;17.046;2022-12-07T18:33:47;10.57;;;5.35;;
31716;SDS011;18301;51.076;17.046;2022-12-07T18:38:49;8.73;;;4.93;;
31716;SDS011;18301;51.076;17.046;2022-12-07T18:43:51;11.30;;;5.40;;
31716;SDS011;18301;51.076;17.046;2022-12-07T18:48:52;11.18;;;5.63;;
31716;SDS011;18301;51.076;17.046;2022-12-07T18:53:57;12.88;;;5.78;;
31716;SDS011;18301;51.076;17.046;2022-12-07T18:59:01;11.75;;;5.28;;
31716;SDS011;18301;51.076;17.046;2022-12-07T19:04:22;9.95;;;5.00;;
31716;SDS011;18301;51.076;17.046;2022-12-07T19:09:24;9.98;;;5.47;;
31716;SDS011;18301;51.076;17.046;2022-12-07T19:14:27;9.65;;;5.30;;
31716;SDS011;18301;51.076;17.046;2022-12-07T19:19:31;11.82;;;6.20;;
31716;SDS011;18301;51.076;17.046;2022-12-07T19:24:35;13.32;;;6.20;;
31716;SDS011;18301;51.076;17.046;2022-12-07T19:29:37;12.65;;;6.20;;
31716;SDS011;18301;51.076;17.046;2022-12-07T19:34:40;12.55;;;6.03;;
31716;SDS011;18301;51.076;17.046;2022-12-07T19:39:43;14.30;;;6.15;;
31716;SDS011;18301;51.076;17.046;2022-12-07T19:44:44;18.17;;;7.03;;
31716;SDS011;18301;51.076;17.046;2022-12-07T19:49:46;17.17;;;7.20;;
31716;SDS011;18301;51.076;17.046;2022-12-07T19:54:48;14.20;;;6.60;;
31716;SDS011;18301;51.076;17.046;2022-12-07T19:59:49;13.30;;;5.55;;
31716;SDS011;18301;51.076;17.046;2022-12-07T20:04:51;9.80;;;4.53;;
31716;SDS011;18301;51.076;17.046;2022-12-07T20:09:53;10.65;;;5.22;;
31716;SDS011;18301;51.076;17.046;2022-12-07T20:14:54;10.02;;;4.95;;
31716;SDS011;18301;51.076;17.046;2022-12-07T20:19:56;9.10;;;4.97;;
31716;SDS011;18301;51.076;17.046;2022-12-07T20:24:57;10.32;;;5.28;;
31716;SDS011;18301;51.076;17.046;2022-12-07T20:29:59;10.80;;;5.43;;
31716;SDS011;18301;51.076;17.046;2022-12-07T20:35:01;9.23;;;5.07;;
31716;SDS011;18301;51.076;17.046;2022-12-07T20:40:03;8.50;;;4.60;;
31716;SDS011;18301;51.076;17.046;2022-12-07T20:45:06;13.60;;;5.82;;
31716;SDS011;18301;51.076;17.046;2022-12-07T20:50:10;11.98;;;6.25;;
31716;SDS011;18301;51.076;17.046;2022-12-07T20:55:11;12.73;;;6.88;;
31716;SDS011;18301;51.076;17.046;2022-12-07T21:00:13;12.40;;;6.50;;
31716;SDS011;18301;51.076;17.046;2022-12-07T21:05:15;11.65;;;5.80;;
31716;SDS011;18301;51.076;17.046;2022-12-07T21:10:18;11.75;;;4.60;;
31716;SDS011;18301;51.076;17.046;2022-12-07T21:15:20;8.68;;;4.10;;
31716;SDS011;18301;51.076;17.046;2022-12-07T21:20:21;7.82;;;4.05;;
31716;SDS011;18301;51.076;17.046;2022-12-07T21:25:23;10.32;;;4.25;;
31716;SDS011;18301;51.076;17.046;2022-12-07T21:30:25;7.90;;;4.10;;
31716;SDS011;18301;51.076;17.046;2022-12-07T21:35:26;10.23;;;3.67;;
31716;SDS011;18301;51.076;17.046;2022-12-07T21:40:28;6.95;;;3.63;;
31716;SDS011;18301;51.076;17.046;2022-12-07T21:45:30;8.20;;;3.50;;
31716;SDS011;18301;51.076;17.046;2022-12-07T21:50:32;5.00;;;3.33;;
31716;SDS011;18301;51.076;17.046;2022-12-07T21:55:40;7.75;;;4.20;;
31716;SDS011;18301;51.076;17.046;2022-12-07T22:00:42;9.13;;;4.75;;
31716;SDS011;18301;51.076;17.046;2022-12-07T22:05:43;9.57;;;4.93;;
31716;SDS011;18301;51.076;17.046;2022-12-07T22:10:45;9.80;;;5.03;;
31716;SDS011;18301;51.076;17.046;2022-12-07T22:15:47;16.38;;;5.47;;
31716;SDS011;18301;51.076;17.046;2022-12-07T22:20:48;21.17;;;7.70;;
31716;SDS011;18301;51.076;17.046;2022-12-07T22:25:57;14.45;;;6.78;;
31716;SDS011;18301;51.076;17.046;2022-12-07T22:31:02;15.70;;;6.78;;
31716;SDS011;18301;51.076;17.046;2022-12-07T22:36:05;11.95;;;6.15;;
31716;SDS011;18301;51.076;17.046;2022-12-07T22:41:26;12.82;;;6.05;;
31716;SDS011;18301;51.076;17.046;2022-12-07T22:46:30;12.40;;;6.10;;
31716;SDS011;18301;51.076;17.046;2022-12-07T22:51:35;10.73;;;5.97;;
31716;SDS011;18301;51.076;17.046;2022-12-07T22:56:38;11.20;;;5.30;;
31716;SDS011;18301;51.076;17.046;2022-12-07T23:01:40;11.98;;;5.43;;
31716;SDS011;18301;51.076;17.046;2022-12-07T23:06:42;12.65;;;6.10;;
31716;SDS011;18301;51.076;17.046;2022-12-07T23:11:44;11.88;;;6.30;;
31716;SDS011;18301;51.076;17.046;2022-12-07T23:17:04;14.50;;;7.32;;
31716;SDS011;18301;51.076;17.046;2022-12-07T23:22:06;13.57;;;7.47;;
31716;SDS011;18301;51.076;17.046;2022-12-07T23:27:07;12.88;;;6.38;;
31716;SDS011;18301;51.076;17.046;2022-12-07T23:32:09;12.50;;;6.35;;
31716;SDS011;18301;51.076;17.046;2022-12-07T23:37:11;11.95;;;6.60;;
31716;SDS011;18301;51.076;17.046;2022-12-07T23:42:12;11.43;;;5.65;;
31716;SDS011;18301;51.076;17.046;2022-12-07T23:47:14;8.98;;;5.03;;
31716;SDS011;18301;51.076;17.046;2022-12-07T23:52:16;8.52;;;5.35;;
31716;SDS011;18301;51.076;17.046;2022-12-07T23:57:17;13.20;;;6.97;;
